Weather reports worldwide

Advertisment
Trento, Italy (16023): temperature & dewpoint: 14.10.2018 16:00:00 - 20.10.2018 16:00:00 (CEST)Trento, Italy (16023): wind speed: 14.10.2018 16:00:00 - 20.10.2018 16:00:00 (CEST)Trento, Italy (16023): wind direction: 14.10.2018 16:00:00 - 20.10.2018 16:00:00 (CEST)Trento, Italy (16023): reduced air pressure: 14.10.2018 16:00:00 - 20.10.2018 16:00:00 (CEST)Trento, Italy (16023): precipitation: 14.10.2018 16:00:00 - 20.10.2018 16:00:00 (CEST)
Date & Time tt [°C] td [°C] ff [km/h] ff [kn] dd ppp [hPa] rr [mm]
20.10.2018 16:00:00 - - - - - - -
20.10.2018 15:00:00 23,3 9,6 9 5 S 1022,2 -
20.10.2018 14:00:00 21,6 8,8 2 1 W 1023,2 0,0
20.10.2018 13:00:00 20,3 8,9 4 2 NW 1024,0 -
20.10.2018 12:00:00 18,0 8,2 9 5 N 1024,9 -
20.10.2018 11:00:00 16,5 8,4 11 6 N 1025,3 -
20.10.2018 10:00:00 15,3 10,2 4 2 W 1025,2 -
20.10.2018 09:00:00 11,7 7,9 0 0 N 1025,1 -
20.10.2018 08:00:00 12,9 8,5 4 2 NNW 1024,5 0,0
20.10.2018 07:00:00 13,8 9,0 2 1 NE 1023,8 -
20.10.2018 06:00:00 13,9 9,7 5 3 NNW 1023,4 -
20.10.2018 05:00:00 13,9 10,1 4 2 NNW 1023,1 -
20.10.2018 04:00:00 14,2 10,6 4 2 N 1023,2 -
20.10.2018 03:00:00 13,4 10,7 0 0 N 1023,2 -
20.10.2018 02:00:00 12,7 9,9 2 1 SSE 1023,1 0,0
20.10.2018 01:00:00 12,6 9,8 2 1 NNW 1023,0 -
20.10.2018 00:00:00 12,1 9,1 2 1 E 1022,5 -
19.10.2018 23:00:00 12,7 9,3 4 2 E 1022,2 -
19.10.2018 22:00:00 13,3 9,1 2 1 ENE 1021,5 -
19.10.2018 21:00:00 14,5 9,9 4 2 ENE 1020,7 -
19.10.2018 20:00:00 15,8 9,9 2 1 E 1020,0 -
19.10.2018 19:00:00 17,8 9,9 0 0 N 1018,7 -
19.10.2018 18:00:00 20,1 9,3 5 3 N 1017,6 -
19.10.2018 17:00:00 22,7 9,1 5 3 NW 1017,0 -
19.10.2018 16:00:00 24,4 10,3 4 2 WNW 1016,8 -
19.10.2018 15:00:00 22,7 9,1 2 1 WNW 1017,4 -
19.10.2018 14:00:00 21,6 9,4 4 2 E 1018,4 0,0
19.10.2018 13:00:00 20,1 9,0 5 3 W 1019,5 -
19.10.2018 12:00:00 17,5 8,8 8 4 NW 1020,3 -
19.10.2018 11:00:00 15,9 9,0 9 5 N 1021,0 -
19.10.2018 10:00:00 13,1 10,1 4 2 NNW 1021,4 -
19.10.2018 09:00:00 9,6 7,9 5 3 SE 1021,5 -
19.10.2018 08:00:00 9,3 7,6 2 1 ENE 1021,0 0,0
19.10.2018 07:00:00 9,3 7,7 4 2 E 1020,6 -
19.10.2018 06:00:00 9,5 7,8 2 1 E 1020,5 -
19.10.2018 05:00:00 9,7 7,6 4 2 SE 1020,3 -
19.10.2018 04:00:00 10,4 8,3 4 2 W 1020,3 -
19.10.2018 03:00:00 10,8 8,5 0 0 N 1020,3 -
19.10.2018 02:00:00 11,1 8,6 2 1 NE 1020,3 0,0
19.10.2018 01:00:00 11,8 9,3 2 1 NE 1020,0 -
19.10.2018 00:00:00 11,7 8,9 2 1 ENE 1019,6 -
18.10.2018 23:00:00 12,3 9,1 4 2 NE 1018,9 -
18.10.2018 22:00:00 12,2 8,4 4 2 ENE 1018,3 -
18.10.2018 21:00:00 13,3 8,7 2 1 NE 1017,8 -
18.10.2018 20:00:00 14,6 8,9 4 2 ENE 1017,1 0,0
18.10.2018 19:00:00 16,3 9,2 4 2 ENE 1016,4 -
18.10.2018 18:00:00 19,2 9,6 2 1 SSW 1015,5 -
18.10.2018 17:00:00 21,6 9,8 4 2 WNW 1015,1 -
18.10.2018 16:00:00 21,5 9,3 5 3 NW 1015,5 -
18.10.2018 15:00:00 20,9 9,4 8 4 N 1015,9 -
18.10.2018 14:00:00 20,3 9,8 9 5 NW 1017,1 0,0
18.10.2018 13:00:00 18,9 9,0 8 4 NW 1018,1 -
18.10.2018 12:00:00 17,2 9,3 9 5 NNW 1018,9 -
18.10.2018 11:00:00 15,7 9,3 9 5 N 1019,5 -
18.10.2018 10:00:00 14,6 8,9 16 9 NNE 1019,6 -
18.10.2018 09:00:00 12,4 9,6 9 5 NNW 1019,6 -
18.10.2018 08:00:00 10,9 8,3 0 0 N 1019,3 0,0
18.10.2018 07:00:00 11,3 9,0 2 1 ENE 1019,3 -
18.10.2018 06:00:00 10,9 9,0 2 1 SW 1019,5 -
18.10.2018 05:00:00 10,5 8,2 0 0 N 1019,5 -
18.10.2018 04:00:00 11,1 8,5 4 2 WSW 1019,7 -
18.10.2018 03:00:00 11,2 8,2 2 1 ENE 1019,8 -
18.10.2018 02:00:00 12,0 8,8 5 3 N 1019,9 0,0
18.10.2018 01:00:00 12,6 8,8 2 1 ENE 1020,1 -
18.10.2018 00:00:00 14,3 9,7 4 2 ENE 1019,9 -
17.10.2018 23:00:00 15,4 10,7 0 0 N 1019,9 -
17.10.2018 22:00:00 15,1 10,5 4 2 NE 1019,6 -
17.10.2018 21:00:00 15,4 9,7 2 1 E 1019,2 -
17.10.2018 20:00:00 16,0 9,6 0 0 N 1019,0 0,0
17.10.2018 19:00:00 17,0 9,8 2 1 E 1018,6 -
17.10.2018 18:00:00 18,1 10,2 5 3 SW 1018,2 -
17.10.2018 17:00:00 18,8 9,2 0 0 N 1018,2 -
17.10.2018 16:00:00 19,0 8,6 2 1 WNW 1018,4 -
17.10.2018 15:00:00 19,1 9,0 5 3 WNW 1018,7 -
17.10.2018 14:00:00 16,8 8,2 4 2 WNW 1020,0 0,0
17.10.2018 13:00:00 15,8 8,0 9 5 NNW 1020,9 -
17.10.2018 12:00:00 14,8 7,8 8 4 NNW 1021,9 -
17.10.2018 11:00:00 14,0 7,7 11 6 NNE 1022,4 -
17.10.2018 10:00:00 12,9 8,1 9 5 N 1022,7 -
17.10.2018 09:00:00 10,8 8,2 4 2 S 1022,9 -
17.10.2018 08:00:00 9,8 7,4 2 1 ESE 1022,7 0,0
17.10.2018 07:00:00 9,4 7,3 0 0 N 1022,5 -
17.10.2018 06:00:00 9,4 7,1 4 2 NE 1022,4 -
17.10.2018 05:00:00 10,0 7,9 2 1 SE 1022,5 -
17.10.2018 04:00:00 9,7 7,8 4 2 E 1022,6 -
17.10.2018 03:00:00 9,9 7,6 2 1 ESE 1023,0 -
17.10.2018 02:00:00 10,3 7,5 2 1 W 1023,0 0,0
17.10.2018 01:00:00 10,9 7,9 2 1 N 1023,0 -
17.10.2018 00:00:00 11,7 8,1 2 1 SSE 1022,9 -
16.10.2018 23:00:00 12,8 9,0 4 2 E 1022,7 -
16.10.2018 22:00:00 13,3 9,1 2 1 ENE 1022,4 -
16.10.2018 21:00:00 13,8 9,0 4 2 ENE 1022,0 -
16.10.2018 20:00:00 14,5 8,6 2 1 E 1021,7 0,0
16.10.2018 19:00:00 16,4 9,7 0 0 N 1020,9 -
16.10.2018 18:00:00 18,4 9,9 4 2 NW 1020,4 -
16.10.2018 17:00:00 18,9 9,3 4 2 SW 1020,4 -
16.10.2018 16:00:00 19,5 9,6 8 4 S 1020,5 -
16.10.2018 15:00:00 20,3 9,8 4 2 S 1020,7 -
16.10.2018 14:00:00 18,0 8,2 8 4 NW 1021,6 0,0
16.10.2018 13:00:00 16,9 8,0 5 3 NNW 1022,2 -
16.10.2018 12:00:00 16,4 8,0 9 5 NNW 1022,8 -
16.10.2018 11:00:00 15,4 8,6 9 5 NNW 1023,0 -
16.10.2018 10:00:00 14,2 9,4 2 1 W 1023,2 -
16.10.2018 09:00:00 11,4 8,4 2 1 E 1023,1 -
16.10.2018 08:00:00 10,6 7,6 0 0 N 1022,7 0,0
16.10.2018 07:00:00 10,4 7,4 2 1 ESE 1022,3 -
16.10.2018 06:00:00 10,5 8,1 4 2 NNE 1022,1 -
16.10.2018 05:00:00 9,8 7,7 4 2 NNE 1022,2 -
16.10.2018 04:00:00 9,6 6,8 2 1 N 1022,3 -
16.10.2018 03:00:00 10,2 7,4 4 2 ENE 1022,3 -
16.10.2018 02:00:00 10,6 7,3 4 2 E 1022,0 0,0
16.10.2018 01:00:00 11,0 7,1 0 0 N 1021,7 -
16.10.2018 00:00:00 12,2 7,5 4 2 ENE 1021,4 -
15.10.2018 23:00:00 13,4 7,3 4 2 ENE 1021,4 -
15.10.2018 22:00:00 15,3 8,2 9 5 S 1020,8 -
15.10.2018 21:00:00 16,6 7,7 8 4 SW 1020,4 -
15.10.2018 20:00:00 19,0 8,0 8 4 SE 1020,1 0,0
15.10.2018 19:00:00 19,7 7,4 9 5 SSE 1019,3 -
15.10.2018 18:00:00 21,1 7,3 8 4 ESE 1018,3 -
15.10.2018 17:00:00 22,9 7,4 11 6 SE 1017,8 -
15.10.2018 16:00:00 22,9 8,2 29 16 ESE 1017,6 -
15.10.2018 15:00:00 23,3 9,6 24 13 SSE 1017,9 -
15.10.2018 14:00:00 20,9 10,6 4 2 W 1018,6 0,0
15.10.2018 13:00:00 19,5 10,2 5 3 N 1019,4 -
15.10.2018 12:00:00 19,1 10,8 11 6 NNW 1019,8 -
15.10.2018 11:00:00 17,6 10,2 13 7 NNW 1024,2 -
15.10.2018 10:00:00 14,9 11,8 4 2 NNE 1020,7 -
15.10.2018 09:00:00 11,4 8,8 4 2 E 1020,8 -
15.10.2018 08:00:00 11,5 9,2 4 2 NNW 1024,4 0,0
15.10.2018 07:00:00 11,5 8,3 4 2 NE 1020,1 -
15.10.2018 06:00:00 12,1 9,1 2 1 ESE 1020,0 -
15.10.2018 05:00:00 12,1 9,3 4 2 ENE 1020,0 -
15.10.2018 04:00:00 12,1 9,6 2 1 NW 1020,2 -
15.10.2018 03:00:00 12,1 9,1 4 2 W 1020,4 -
15.10.2018 02:00:00 13,0 9,2 2 1 NE 1020,4 0,0
15.10.2018 01:00:00 15,4 11,5 5 3 E 1020,2 -
15.10.2018 00:00:00 15,7 10,8 8 4 N 1020,1 -
14.10.2018 23:00:00 15,7 10,4 4 2 ESE 1019,9 -
14.10.2018 22:00:00 16,4 10,6 5 3 WSW 1019,5 -
14.10.2018 21:00:00 17,0 9,4 4 2 E 1019,3 -
14.10.2018 20:00:00 18,5 9,0 2 1 WNW 1018,7 0,0
14.10.2018 19:00:00 21,2 8,7 5 3 ESE 1018,0 -
14.10.2018 18:00:00 21,2 8,4 4 2 SSE 1017,5 -
14.10.2018 17:00:00 24,1 10,3 4 2 NNW 1017,3 -
14.10.2018 16:00:00 23,3 9,6 9 5 SW 1017,8 -

tt = temperature
td = dewpoint
ff = wind speed
dd = wind direction
ppp = reduced air pressure
rr = precipitation

Next stations